Time;durP1;ratioP1;P1;durP2;ratioP2;P2;SDS_P1;SDS_P2;PMS_P1;PMS_P2;Temp;Humidity;BMP_temperature;BMP_pressure;BME280_temperature;BME280_humidity;BME280_pressure;Samples;Min_cycle;Max_cycle;Signal;HPM_P1;HPM_P2
2021/06/01 00:02:20;;;;;;;0.32;0.32;;;13.00;59.40;;;15.32;49.76;102066.84;4986259;28;97097;-68
2021/06/01 00:04:49;;;;;;;0.10;0.10;;;12.90;59.40;;;15.27;49.35;102061.50;4985454;28;98161;-68
2021/06/01 00:07:17;;;;;;;0.00;0.00;;;12.90;59.40;;;15.24;50.09;102059.41;4987469;28;97369;-68
2021/06/01 00:09:46;;;;;;;0.40;0.40;;;12.80;59.40;;;15.20;49.79;102063.03;4982940;28;96763;-68
2021/06/01 00:12:15;;;;;;;0.63;0.63;;;12.80;59.40;;;15.16;49.92;102065.50;4988410;28;97088;-68
2021/06/01 00:14:44;;;;;;;0.00;0.00;;;12.80;59.40;;;15.13;49.41;102063.41;4988566;28;97640;-68
2021/06/01 00:17:12;;;;;;;0.17;0.10;;;12.70;59.40;;;15.09;50.01;102059.72;4987233;28;97792;-68
2021/06/01 00:19:41;;;;;;;0.40;0.40;;;12.70;59.30;;;15.03;49.45;102063.63;4989355;28;96833;-69
2021/06/01 00:22:09;;;;;;;0.00;0.00;;;12.70;59.30;;;15.03;49.57;102057.41;4990029;28;96956;-68
2021/06/01 00:24:37;;;;;;;0.38;0.38;;;12.70;59.30;;;15.01;49.75;102063.13;4986766;28;97966;-68
2021/06/01 00:27:13;;;;;;;0.15;0.15;;;12.60;59.30;;;14.98;49.40;102060.22;4972292;28;97690;-71
2021/06/01 00:30:02;;;;;;;2.05;1.00;;;12.60;59.40;;;14.96;49.33;102060.50;4972650;28;97353;-69
2021/06/01 00:32:30;;;;;;;0.03;0.03;;;12.50;59.30;;;14.95;49.55;102055.41;4981807;28;97271;-69
2021/06/01 00:34:59;;;;;;;0.10;0.10;;;12.50;59.40;;;14.92;49.53;102064.88;4985084;28;96812;-69
2021/06/01 00:37:27;;;;;;;0.45;0.30;;;12.50;59.40;;;14.93;49.64;102054.91;4988329;28;96931;-69
2021/06/01 00:39:55;;;;;;;0.05;0.05;;;12.50;59.50;;;14.93;49.32;102050.28;4989238;28;97356;-70
2021/06/01 00:42:23;;;;;;;0.20;0.20;;;12.50;59.50;;;14.94;49.38;102045.72;4987028;28;97005;-69
2021/06/01 00:44:51;;;;;;;0.35;0.35;;;12.40;59.50;;;14.96;49.62;102048.91;4989632;28;99550;-69
2021/06/01 00:47:21;;;;;;;0.20;0.20;;;12.50;59.60;;;14.95;49.30;102052.72;5003195;28;97630;-69
2021/06/01 00:49:49;;;;;;;0.60;0.60;;;12.40;59.40;;;14.94;49.24;102054.59;4990246;28;97409;-69
2021/06/01 00:52:17;;;;;;;0.85;0.85;;;12.40;59.50;;;14.95;49.43;102048.09;4986555;28;96918;-70
2021/06/01 00:54:46;;;;;;;3.40;0.52;;;12.40;59.50;;;14.94;48.91;102046.50;4982792;28;99213;-69
2021/06/01 00:57:14;;;;;;;0.10;0.10;;;12.40;59.40;;;14.88;49.33;102045.00;4987565;28;97763;-69
2021/06/01 00:59:42;;;;;;;0.38;0.38;;;12.40;59.50;;;14.87;49.92;102043.41;4986609;28;97635;-69
2021/06/01 01:02:10;;;;;;;0.30;0.30;;;12.30;59.50;;;14.89;49.03;102049.28;4987425;28;97350;-69
2021/06/01 01:04:40;;;;;;;0.28;0.28;;;12.30;59.50;;;14.80;49.56;102044.88;4984272;28;97892;-69
2021/06/01 01:07:18;;;;;;;0.10;0.10;;;12.30;59.50;;;14.69;49.81;102055.03;4985110;28;97688;-69
2021/06/01 01:09:48;;;;;;;0.10;0.10;;;12.20;59.50;;;14.67;49.36;102046.44;5001999;28;97149;-68
2021/06/01 01:12:27;;;;;;;0.22;0.22;;;12.20;59.50;;;14.68;49.19;102039.97;4982999;28;97407;-69
2021/06/01 01:15:00;;;;;;;0.45;0.32;;;12.20;59.60;;;14.66;49.51;102039.44;4986899;28;96831;-69
2021/06/01 01:17:40;;;;;;;0.70;0.55;;;12.20;59.60;;;14.72;49.26;102040.19;4984763;28;97875;-69
2021/06/01 01:20:31;;;;;;;0.20;0.20;;;12.10;59.60;;;14.69;49.55;102041.56;4989630;28;96897;-69
2021/06/01 01:23:10;;;;;;;0.10;0.10;;;12.10;59.70;;;14.75;49.15;102048.50;4986331;28;97244;-69
2021/06/01 01:25:59;;;;;;;0.10;0.10;;;12.10;59.70;;;14.69;49.25;102049.66;4986012;28;97945;-69
2021/06/01 01:28:41;;;;;;;0.22;0.20;;;12.10;59.70;;;14.65;49.45;102053.25;4986890;28;97995;-69
2021/06/01 01:31:25;;;;;;;0.30;0.30;;;12.00;59.60;;;14.63;49.13;102044.66;4985305;28;96871;-69
2021/06/01 01:34:00;;;;;;;0.40;0.38;;;12.00;59.60;;;14.61;49.30;102061.13;4988067;28;96918;-69
2021/06/01 01:36:30;;;;;;;0.20;0.20;;;12.00;59.70;;;14.61;49.24;102061.13;4985748;28;97889;-69
2021/06/01 01:39:00;;;;;;;0.20;0.20;;;12.00;59.70;;;14.58;49.36;102050.16;4989718;28;98871;-69
2021/06/01 01:41:34;;;;;;;0.10;0.10;;;11.90;59.70;;;14.48;49.19;102056.50;5005760;28;96889;-69
2021/06/01 01:44:11;;;;;;;0.17;0.17;;;11.90;59.70;;;14.47;49.24;102056.78;4982729;28;97172;-68
2021/06/01 01:47:01;;;;;;;0.63;0.45;;;11.90;59.80;;;14.45;49.47;102059.81;4987625;28;98051;-69
2021/06/01 01:49:32;;;;;;;1.35;0.63;;;11.90;59.80;;;14.45;49.38;102065.19;4983633;28;97902;-69
2021/06/01 01:52:04;;;;;;;1.65;0.95;;;11.90;59.80;;;14.44;49.14;102060.09;4986947;28;96796;-69
2021/06/01 01:54:40;;;;;;;0.55;0.55;;;11.90;59.80;;;14.43;49.41;102058.47;4985391;28;97811;-69
2021/06/01 01:57:11;;;;;;;0.10;0.10;;;11.80;59.70;;;14.29;49.69;102054.94;4999138;28;97185;-69
2021/06/01 01:59:40;;;;;;;5.47;0.32;;;11.80;59.80;;;14.25;49.72;102049.34;4984702;28;97671;-69
2021/06/01 02:02:11;;;;;;;0.43;0.30;;;11.80;59.70;;;14.25;49.71;102053.91;4988617;28;96732;-69
2021/06/01 02:04:44;;;;;;;0.25;0.25;;;11.80;59.70;;;14.22;49.92;102051.81;4982876;28;96838;-68
2021/06/01 02:07:12;;;;;;;0.22;0.22;;;11.70;59.70;;;14.20;49.85;102052.13;4985231;28;98240;-69
2021/06/01 02:09:42;;;;;;;0.15;0.15;;;11.70;59.70;;;14.19;49.70;102047.00;4972616;28;98827;-69
2021/06/01 02:12:11;;;;;;;0.55;0.25;;;11.70;59.70;;;14.18;49.63;102043.53;5021418;28;96703;-69
2021/06/01 02:14:39;;;;;;;1.55;0.47;;;11.70;59.70;;;14.21;49.36;102039.41;4969377;28;97058;-69
2021/06/01 02:17:07;;;;;;;0.38;0.38;;;11.70;59.80;;;14.24;49.56;102041.53;4986751;28;97321;-69
2021/06/01 02:19:35;;;;;;;0.65;0.65;;;11.70;59.80;;;14.22;49.60;102033.75;4982516;28;98284;-69
2021/06/01 02:22:22;;;;;;;1.02;0.93;;;11.70;59.90;;;14.24;49.51;102036.94;4988507;28;96974;-69
2021/06/01 02:24:59;;;;;;;0.10;0.10;;;11.70;59.80;;;14.24;49.27;102034.25;4982357;28;97976;-69
2021/06/01 02:27:39;;;;;;;0.17;0.17;;;11.60;59.80;;;14.24;49.32;102034.25;4984341;28;98227;-69
2021/06/01 02:30:12;;;;;;;0.10;0.10;;;11.60;59.80;;;14.23;49.31;102034.53;4968467;28;98146;-68
2021/06/01 02:32:50;;;;;;;0.00;0.00;;;11.60;59.80;;;14.25;48.91;102027.75;4985987;28;96852;-69
2021/06/01 02:35:24;;;;;;;4.28;1.45;;;11.60;59.80;;;14.24;49.18;102031.56;4986546;28;96996;-69
2021/06/01 02:37:54;;;;;;;0.90;0.88;;;11.60;59.80;;;14.27;49.17;102033.66;4985888;28;96681;-69
2021/06/01 02:40:23;;;;;;;4.47;0.63;;;11.60;59.80;;;14.30;49.06;102029.59;4983086;28;97919;-69
2021/06/01 02:42:52;;;;;;;0.60;0.60;;;11.60;59.80;;;14.33;48.96;102024.38;4985146;28;97030;-69
2021/06/01 02:45:24;;;;;;;0.22;0.22;;;11.60;59.80;;;14.33;48.94;102032.47;4987253;28;96968;-68
2021/06/01 02:47:54;;;;;;;0.80;0.25;;;11.60;59.80;;;14.32;49.10;102028.19;4967852;28;97428;-69
2021/06/01 02:50:24;;;;;;;0.00;0.00;;;11.60;59.80;;;14.30;49.10;102030.38;4991107;28;97631;-69
2021/06/01 02:52:54;;;;;;;0.98;0.90;;;11.60;59.80;;;14.25;48.87;102033.16;4991033;28;97302;-68
2021/06/01 02:55:24;;;;;;;0.20;0.20;;;11.50;59.80;;;14.29;49.32;102026.06;4987544;28;96788;-70
2021/06/01 02:57:53;;;;;;;0.57;0.57;;;11.50;59.80;;;14.34;48.98;102028.69;4989535;28;97863;-69
2021/06/01 03:00:25;;;;;;;0.40;0.40;;;11.60;59.90;;;14.35;48.92;102024.88;4988637;28;96940;-69
2021/06/01 03:02:54;;;;;;;1.03;0.43;;;11.60;59.90;;;14.33;48.85;102020.91;4984345;28;96887;-68
2021/06/01 03:05:29;;;;;;;3.40;0.60;;;11.60;59.90;;;14.39;48.83;102014.31;4990875;28;97031;-68
2021/06/01 03:08:18;;;;;;;1.10;0.68;;;11.60;59.90;;;14.36;49.03;102010.31;4984259;28;97968;-69
2021/06/01 03:10:47;;;;;;;0.40;0.40;;;11.50;59.90;;;14.35;48.89;102000.63;4988041;28;96844;-69
2021/06/01 03:13:15;;;;;;;0.10;0.10;;;11.50;59.80;;;14.38;48.85;102010.03;4990623;28;96930;-69
2021/06/01 03:15:43;;;;;;;1.23;1.13;;;11.50;59.90;;;14.39;48.84;102011.63;4989825;28;97008;-69
2021/06/01 03:18:12;;;;;;;0.03;0.03;;;11.50;59.90;;;14.43;48.81;102008.06;4984612;28;97083;-69
2021/06/01 03:20:42;;;;;;;0.20;0.20;;;11.60;59.90;;;14.38;48.75;102005.41;4983492;28;96854;-68
2021/06/01 03:23:12;;;;;;;0.22;0.22;;;11.50;59.90;;;14.40;48.66;102002.44;4985417;28;96773;-69
2021/06/01 03:25:40;;;;;;;0.17;0.17;;;11.50;59.90;;;14.39;48.87;102007.03;4991734;28;97403;-70
2021/06/01 03:28:08;;;;;;;0.35;0.35;;;11.50;59.90;;;14.42;49.00;102006.47;4989782;28;98253;-68
2021/06/01 03:30:38;;;;;;;0.57;0.57;;;11.50;60.00;;;14.40;48.84;102007.84;4984884;28;96885;-69
2021/06/01 03:33:07;;;;;;;0.38;0.38;;;11.50;59.90;;;14.45;48.70;102005.03;4989154;28;96935;-69
2021/06/01 03:35:36;;;;;;;0.20;0.20;;;11.50;60.00;;;14.44;48.78;102006.97;4987355;28;97245;-68
2021/06/01 03:38:05;;;;;;;0.88;0.88;;;11.50;60.00;;;14.42;48.62;102013.72;4991360;28;97953;-68
2021/06/01 03:40:37;;;;;;;0.82;0.82;;;11.50;60.00;;;14.42;48.83;102011.03;5000925;28;97293;-68
2021/06/01 03:43:06;;;;;;;0.75;0.75;;;11.50;60.00;;;14.42;48.85;102009.16;4984871;28;97696;-69
2021/06/01 03:45:35;;;;;;;0.63;0.63;;;11.50;60.00;;;14.41;49.17;102012.94;4987661;28;96958;-69
2021/06/01 03:48:05;;;;;;;0.20;0.20;;;11.50;60.00;;;14.42;48.74;102011.03;4991493;28;98361;-68
2021/06/01 03:50:34;;;;;;;1.35;0.45;;;11.50;60.00;;;14.42;48.67;102016.44;4990895;28;98797;-68
2021/06/01 03:53:05;;;;;;;0.80;0.45;;;11.50;60.00;;;14.46;48.91;102020.13;4987095;28;96952;-69
2021/06/01 03:55:35;;;;;;;1.48;0.95;;;11.50;60.10;;;14.40;48.84;102018.63;4989556;28;96750;-69
2021/06/01 03:58:06;;;;;;;0.10;0.10;;;11.50;60.00;;;14.39;48.95;102017.03;4991057;28;96945;-68
2021/06/01 04:00:35;;;;;;;0.75;0.75;;;11.50;60.00;;;14.43;48.85;102021.53;4990597;28;97746;-68
2021/06/01 04:03:04;;;;;;;0.35;0.35;;;11.60;60.10;;;14.52;48.61;102022.47;5004864;28;96839;-69
2021/06/01 04:05:32;;;;;;;0.82;0.52;;;11.60;60.10;;;14.55;48.55;102026.44;4985394;28;97906;-68
2021/06/01 04:08:05;;;;;;;0.50;0.47;;;11.60;60.10;;;14.56;48.59;102023.47;4987208;28;96977;-69
2021/06/01 04:10:35;;;;;;;0.40;0.40;;;11.60;60.10;;;14.61;48.47;102020.66;4988644;28;96801;-69
2021/06/01 04:13:04;;;;;;;0.40;0.30;;;11.60;60.70;;;14.64;48.71;102020.06;4989424;28;96911;-69
2021/06/01 04:15:32;;;;;;;1.55;0.52;;;11.60;60.10;;;14.67;48.77;102018.69;4992652;28;97041;-69
2021/06/01 04:18:00;;;;;;;0.32;0.32;;;11.60;60.10;;;14.70;48.39;102020.78;5022212;28;97302;-69
2021/06/01 04:20:30;;;;;;;0.30;0.30;;;11.70;60.10;;;14.76;48.51;102023.09;4999637;28;97952;-69
2021/06/01 04:22:58;;;;;;;0.38;0.38;;;11.70;60.10;;;14.75;48.25;102024.19;4985048;28;97355;-69
2021/06/01 04:25:26;;;;;;;0.55;0.55;;;11.70;60.10;;;14.81;48.69;102017.59;4990800;28;96869;-69
2021/06/01 04:27:56;;;;;;;0.35;0.35;;;11.70;60.10;;;14.84;48.41;102019.72;4987053;28;97221;-69
2021/06/01 04:30:25;;;;;;;0.15;0.15;;;11.70;60.10;;;14.88;48.22;102020.72;4987151;28;97784;-69
2021/06/01 04:32:53;;;;;;;2.22;0.75;;;11.80;60.10;;;14.94;48.29;102026.81;4990788;28;98153;-70
2021/06/01 04:35:23;;;;;;;0.50;0.50;;;11.80;60.10;;;14.96;48.53;102013.81;4983812;28;97376;-69
2021/06/01 04:37:51;;;;;;;8.07;0.75;;;11.90;60.20;;;15.01;48.49;102025.34;4989046;28;97913;-69
2021/06/01 04:40:20;;;;;;;0.00;0.00;;;11.90;60.10;;;15.07;48.22;102023.31;4987314;28;96875;-69
2021/06/01 04:42:48;;;;;;;0.52;0.45;;;11.90;60.10;;;15.10;48.08;102022.72;4991185;28;97369;-69
2021/06/01 04:45:19;;;;;;;0.25;0.25;;;12.00;60.20;;;15.15;48.04;102015.31;4983401;28;97030;-68
2021/06/01 04:47:47;;;;;;;1.13;0.43;;;12.00;60.10;;;15.22;48.13;102020.31;4989952;28;97967;-70
2021/06/01 04:50:16;;;;;;;1.13;0.55;;;12.00;60.10;;;15.29;48.26;102018.03;4987641;28;97586;-69
2021/06/01 04:52:45;;;;;;;0.15;0.15;;;12.10;60.10;;;15.31;47.83;102013.94;4987895;28;96907;-69
2021/06/01 04:55:14;;;;;;;1.88;1.17;;;12.10;60.10;;;15.41;47.93;102013.72;4987107;28;97027;-69
2021/06/01 04:57:43;;;;;;;0.28;0.28;;;12.20;60.20;;;15.43;47.50;102016.94;4981377;28;98252;-69
2021/06/01 05:00:13;;;;;;;0.15;0.15;;;12.20;60.10;;;15.47;47.57;102017.91;4967328;28;98557;-69
2021/06/01 05:02:42;;;;;;;0.40;0.40;;;12.20;60.10;;;15.51;47.30;102018.13;4989811;28;97417;-69
2021/06/01 05:05:12;;;;;;;0.82;0.40;;;12.30;60.10;;;15.60;48.00;102016.28;4984566;28;97068;-70
2021/06/01 05:07:40;;;;;;;0.52;0.45;;;12.30;60.10;;;15.66;47.60;102025.88;5002840;28;98452;-69
2021/06/01 05:10:10;;;;;;;0.15;0.15;;;12.40;60.10;;;15.74;47.61;102018.63;4988598;28;97200;-70
2021/06/01 05:12:39;;;;;;;0.75;0.60;;;12.40;60.00;;;15.80;47.72;102024.75;4990252;28;96825;-69
2021/06/01 05:15:13;;;;;;;2.42;0.75;;;12.50;60.10;;;15.93;47.04;102019.28;4984212;28;97268;-69
2021/06/01 05:17:43;;;;;;;1.73;0.90;;;12.60;60.10;;;16.03;47.11;102016.34;4984484;28;97181;-69
2021/06/01 05:20:13;;;;;;;2.00;1.30;;;12.70;60.10;;;15.94;47.55;102012.00;4988617;28;97258;-69
2021/06/01 05:22:42;;;;;;;0.20;0.20;;;12.70;60.10;;;16.08;48.01;102012.72;4987014;28;97151;-68
2021/06/01 05:25:13;;;;;;;0.40;0.40;;;12.80;60.00;;;16.26;47.23;102019.88;4989284;28;97205;-70
2021/06/01 05:27:41;;;;;;;0.00;0.00;;;12.90;60.10;;;16.40;46.79;102015.19;4989201;28;98158;-69
2021/06/01 05:30:12;;;;;;;0.30;0.30;;;13.00;60.10;;;16.60;46.69;102015.47;5004559;28;97663;-69
2021/06/01 05:33:11;;;;;;;0.63;0.30;;;13.10;60.10;;;16.88;47.09;102016.09;4982817;28;97044;-69
2021/06/01 05:35:44;;;;;;;1.75;1.00;;;13.30;60.30;;;17.27;47.65;102018.78;4988506;28;97364;-69
2021/06/01 05:38:13;;;;;;;1.02;0.50;;;13.60;60.40;;;17.54;47.01;102013.91;4988126;28;97940;-69
2021/06/01 05:40:41;;;;;;;0.10;0.10;;;13.90;60.60;;;17.81;47.38;102019.03;4990161;28;98754;-69
2021/06/01 05:43:09;;;;;;;1.95;0.55;;;14.30;60.70;;;18.17;47.98;102006.75;4985752;28;96807;-69
2021/06/01 05:45:38;;;;;;;0.60;0.60;;;14.70;60.80;;;18.60;47.93;102009.41;4984963;28;97045;-69
2021/06/01 05:48:11;;;;;;;0.10;0.10;;;15.10;60.80;;;19.18;47.42;102013.03;4982736;28;97822;-70
2021/06/01 05:50:41;;;;;;;0.20;0.20;;;15.50;61.00;;;19.68;48.01;102005.66;4983454;28;97657;-70
2021/06/01 05:53:17;;;;;;;11.13;0.40;;;16.00;61.20;;;20.25;48.03;102012.09;4984139;28;97347;-70
2021/06/01 05:55:46;;;;;;;0.10;0.10;;;16.50;61.30;;;20.81;47.43;102003.91;4988237;28;97147;-70
2021/06/01 05:58:14;;;;;;;0.30;0.30;;;17.20;61.60;;;21.53;48.17;102012.88;4985720;28;96944;-71
2021/06/01 06:00:43;;;;;;;0.32;0.20;;;17.80;61.60;;;22.37;47.77;102007.19;4987130;28;97666;-70
2021/06/01 06:03:14;;;;;;;0.30;0.30;;;18.60;61.80;;;23.32;47.31;102004.91;4991982;28;97443;-70
2021/06/01 06:05:43;;;;;;;0.32;0.32;;;19.30;61.70;;;24.12;47.49;102001.97;4979714;28;96968;-70
2021/06/01 06:08:14;;;;;;;1.05;0.60;;;20.10;61.80;;;25.02;46.92;102007.53;4987394;28;99271;-70
2021/06/01 06:10:44;;;;;;;0.55;0.43;;;20.80;61.80;;;25.88;46.58;102009.22;4981745;28;97164;-71
2021/06/01 06:13:14;;;;;;;0.70;0.50;;;21.60;61.70;;;26.66;46.71;102000.63;4985135;28;97285;-71
2021/06/01 06:15:43;;;;;;;0.50;0.50;;;22.40;61.60;;;27.31;46.33;102008.63;4982115;28;97531;-71
2021/06/01 06:18:27;;;;;;;1.05;0.95;;;23.00;61.90;;;27.99;46.29;102010.56;4983743;28;98146;-71
2021/06/01 06:21:00;;;;;;;1.65;0.75;;;23.60;61.20;;;28.59;46.20;102006.00;4985693;28;97638;-71
2021/06/01 06:23:40;;;;;;;0.47;0.47;;;24.30;61.10;;;29.15;46.09;101996.56;4967720;28;96878;-72
2021/06/01 06:26:10;;;;;;;0.82;0.43;;;24.80;61.40;;;29.75;45.89;101999.97;4988403;28;96941;-71
2021/06/01 06:28:38;;;;;;;1.05;0.85;;;25.40;60.90;;;30.36;45.44;102015.09;4968908;28;97311;-71
2021/06/01 06:31:07;;;;;;;0.20;0.20;;;25.90;60.80;;;30.89;45.50;102005.22;4995708;28;97290;-71
2021/06/01 06:33:38;;;;;;;0.15;0.15;;;26.40;60.90;;;31.36;45.46;102001.63;4989032;28;96724;-71
2021/06/01 06:36:07;;;;;;;0.77;0.50;;;26.90;60.60;;;31.73;45.30;102005.19;4988488;28;97211;-70
2021/06/01 06:38:35;;;;;;;1.10;0.77;;;27.30;60.50;;;32.04;45.25;102009.53;4983723;28;97139;-70
2021/06/01 06:41:11;;;;;;;0.75;0.55;;;27.70;60.50;;;32.39;45.35;102000.72;4984774;28;98812;-71
2021/06/01 06:43:44;;;;;;;1.17;0.50;;;28.00;60.40;;;32.59;45.29;101999.63;4987538;28;97248;-71
2021/06/01 06:46:16;;;;;;;2.30;0.28;;;28.30;60.20;;;32.75;45.27;101994.22;4988547;28;96752;-73
2021/06/01 06:48:48;;;;;;;2.90;1.15;;;28.50;60.10;;;32.89;45.66;101993.19;4988834;28;96902;-71
2021/06/01 06:51:17;;;;;;;1.00;0.65;;;28.60;60.10;;;33.16;45.28;101999.44;4982463;28;97347;-72
2021/06/01 06:53:51;;;;;;;0.47;0.38;;;28.80;60.40;;;33.54;45.30;101992.38;5002282;28;96824;-72
2021/06/01 06:56:24;;;;;;;0.22;0.20;;;29.00;60.50;;;33.87;44.82;101992.09;4988043;28;98054;-71
2021/06/01 06:58:53;;;;;;;0.50;0.50;;;29.30;60.50;;;34.12;44.89;101997.13;4982285;28;97974;-72
2021/06/01 07:01:22;;;;;;;0.47;0.40;;;29.60;60.60;;;34.35;44.73;101995.00;4961156;28;98019;-71
2021/06/01 07:03:53;;;;;;;3.38;0.70;;;29.80;60.30;;;34.52;44.57;101994.56;4984098;28;96928;-72
2021/06/01 07:06:23;;;;;;;1.20;0.55;;;30.10;60.20;;;34.64;44.86;101995.88;4989091;28;96843;-72
2021/06/01 07:08:51;;;;;;;7.05;0.88;;;30.30;60.10;;;34.64;45.31;101990.31;4988286;28;96933;-71
2021/06/01 07:11:19;;;;;;;1.00;0.63;;;30.40;60.00;;;34.94;44.77;101987.97;4987581;28;97658;-72
2021/06/01 07:13:56;;;;;;;1.80;0.90;;;30.50;60.20;;;35.12;44.48;101984.72;4986684;28;97110;-71
2021/06/01 07:16:24;;;;;;;0.52;0.52;;;30.70;60.00;;;35.24;44.83;101984.00;4987670;28;96729;-71
2021/06/01 07:18:54;;;;;;;1.80;1.23;;;30.80;60.00;;;35.48;44.45;101982.53;4987306;28;96745;-71
2021/06/01 07:21:22;;;;;;;1.88;0.60;;;31.00;60.10;;;35.55;44.37;101990.69;4983444;28;98171;-71
2021/06/01 07:23:50;;;;;;;2.72;0.98;;;31.10;59.80;;;35.49;44.59;101976.53;5002405;28;97268;-70
2021/06/01 07:26:19;;;;;;;1.95;0.70;;;31.20;59.80;;;35.42;45.00;101979.50;4989955;28;96725;-72
2021/06/01 07:28:47;;;;;;;3.25;1.13;;;31.20;59.70;;;35.41;44.87;101977.94;4982445;28;98755;-72
2021/06/01 07:31:17;;;;;;;0.70;0.70;;;31.20;59.80;;;35.42;45.04;101987.84;4984185;28;98018;-71
2021/06/01 07:33:46;;;;;;;10.80;0.88;;;31.20;59.50;;;35.34;45.08;101972.56;4982978;28;96894;-71
2021/06/01 07:36:16;;;;;;;0.55;0.55;;;31.10;59.80;;;35.44;45.04;101977.06;4988423;28;97334;-72
2021/06/01 07:38:45;;;;;;;1.30;0.80;;;31.20;59.80;;;35.41;45.08;101975.16;4969437;28;96782;-71
2021/06/01 07:41:13;;;;;;;1.52;0.80;;;31.20;59.90;;;35.48;44.95;101969.38;4985425;28;96815;-71
2021/06/01 07:43:41;;;;;;;2.15;0.88;;;31.30;59.70;;;35.37;45.47;101971.69;4993104;28;96846;-72
2021/06/01 07:46:13;;;;;;;0.65;0.65;;;31.30;59.60;;;35.48;44.57;101965.81;4989420;28;97248;-71
2021/06/01 07:48:41;;;;;;;0.20;0.20;;;31.30;59.40;;;35.42;44.71;101968.34;4970230;28;100332;-71
2021/06/01 07:51:11;;;;;;;8.98;1.90;;;31.40;59.10;;;35.35;44.72;101960.19;4987436;28;96879;-71
2021/06/01 07:53:41;;;;;;;2.95;0.95;;;31.30;59.30;;;35.48;44.31;101963.00;4989384;28;96867;-72
2021/06/01 07:56:10;;;;;;;0.93;0.77;;;31.30;59.00;;;35.45;44.69;101970.28;5003066;28;96875;-71
2021/06/01 07:58:38;;;;;;;1.95;0.98;;;31.30;59.10;;;35.52;44.36;101972.06;4987893;28;96686;-71
2021/06/01 08:01:07;;;;;;;2.47;1.10;;;31.30;59.10;;;35.62;44.22;101963.41;5015706;28;96756;-72
2021/06/01 08:03:35;;;;;;;1.00;0.95;;;31.30;59.10;;;35.82;43.87;101958.44;5015239;28;96755;-71
2021/06/01 08:06:06;;;;;;;1.20;0.60;;;31.40;59.10;;;35.90;43.56;101954.19;4990995;28;97393;-73
2021/06/01 08:08:35;;;;;;;28.17;1.03;;;31.50;58.80;;;35.78;43.95;101957.75;4991499;28;96881;-72
2021/06/01 08:11:06;;;;;;;0.63;0.63;;;31.50;58.80;;;35.66;43.98;101944.56;4971894;28;97274;-71
2021/06/01 08:13:35;;;;;;;1.30;0.63;;;31.50;58.50;;;35.56;43.95;101969.94;4956448;28;98314;-71
2021/06/01 08:16:05;;;;;;;1.27;0.77;;;31.50;58.40;;;35.57;43.83;101949.97;4990803;28;96822;-71
2021/06/01 08:18:37;;;;;;;1.60;0.90;;;31.50;58.30;;;35.53;43.73;101956.88;4971889;28;96908;-73
2021/06/01 08:21:07;;;;;;;0.30;0.20;;;31.50;58.20;;;35.56;43.92;101940.06;4985218;28;97068;-71
2021/06/01 08:23:36;;;;;;;0.38;0.32;;;31.50;58.20;;;35.64;43.60;101947.00;5004504;28;97334;-72
2021/06/01 08:26:06;;;;;;;1.63;0.82;;;31.50;58.20;;;35.74;43.38;101945.94;4987337;28;96955;-71
2021/06/01 08:28:35;;;;;;;1.98;0.73;;;31.50;58.10;;;35.86;43.14;101947.94;5006454;28;96984;-72
2021/06/01 08:31:05;;;;;;;1.55;0.68;;;31.60;58.00;;;35.93;42.97;101947.72;4984350;28;96972;-72
2021/06/01 08:33:33;;;;;;;0.82;0.65;;;31.70;58.40;;;35.85;43.07;101951.16;4985072;28;96731;-72
2021/06/01 08:36:05;;;;;;;0.32;0.22;;;31.70;57.70;;;35.77;43.13;101944.25;4993046;28;96853;-72
2021/06/01 08:38:33;;;;;;;0.75;0.60;;;31.60;57.50;;;35.60;43.06;101943.53;4990110;28;99313;-72
2021/06/01 08:41:06;;;;;;;0.85;0.80;;;31.50;57.40;;;35.45;43.05;101939.59;5020873;28;98637;-72
2021/06/01 08:43:34;;;;;;;;;;;31.40;57.40;;;35.39;43.25;101935.75;4992543;28;96701;-71
2021/06/01 08:46:05;;;;;;;0.32;0.32;;;31.30;57.30;;;35.53;42.96;101940.94;4989963;28;96947;-73
2021/06/01 08:48:34;;;;;;;3.92;0.73;;;31.30;57.70;;;35.47;43.34;101942.72;4972882;28;97096;-72
2021/06/01 08:51:06;;;;;;;0.52;0.38;;;31.30;57.60;;;35.35;42.87;101934.31;4987750;28;97761;-72
2021/06/01 08:53:35;;;;;;;0.30;0.30;;;31.20;57.30;;;35.40;42.60;101942.13;5002517;28;96840;-71
2021/06/01 08:56:06;;;;;;;0.25;0.22;;;31.20;57.30;;;35.29;42.76;101936.88;5016912;28;97279;-72
2021/06/01 08:58:34;;;;;;;0.90;0.90;;;31.20;57.20;;;35.27;42.88;101942.09;4986220;28;97591;-71
2021/06/01 09:01:04;;;;;;;1.15;0.60;;;31.10;57.10;;;35.28;42.88;101924.16;5002159;28;96815;-71
2021/06/01 09:03:34;;;;;;;0.90;0.50;;;31.10;57.00;;;35.28;42.42;101923.34;4984283;28;97138;-71
2021/06/01 09:06:15;;;;;;;1.70;0.82;;;31.10;57.00;;;35.38;42.29;101911.91;4981414;28;96915;-71
2021/06/01 09:08:56;;;;;;;14.18;1.00;;;31.10;56.60;;;35.17;42.38;101923.69;4990379;28;96977;-70
2021/06/01 09:11:34;;;;;;;4.47;0.77;;;31.10;56.70;;;35.06;42.48;101928.72;4990108;28;97035;-71
2021/06/01 09:22:55;;;;;;;0.40;0.40;;;30.80;56.30;;;34.89;41.94;101913.28;4967992;28;97740;-71
2021/06/01 09:25:37;;;;;;;0.40;0.38;;;30.70;56.30;;;34.86;41.68;101913.38;4986931;28;97213;-71
2021/06/01 09:28:13;;;;;;;16.42;1.23;;;30.70;56.30;;;34.92;41.53;101901.25;4985081;28;96761;-71
2021/06/01 09:30:46;;;;;;;0.50;0.50;;;30.70;56.10;;;34.96;41.46;101906.72;4982435;28;98234;-71
2021/06/01 09:33:29;;;;;;;1.02;0.57;;;30.70;56.00;;;34.97;41.56;101908.28;4987482;28;97522;-71
2021/06/01 09:36:00;;;;;;;0.50;0.50;;;30.80;55.30;;;35.07;41.05;101904.44;4987503;28;96853;-71
2021/06/01 09:38:44;;;;;;;0.30;0.30;;;30.90;55.70;;;35.11;40.87;101908.66;4986845;28;96879;-71
2021/06/01 09:41:16;;;;;;;0.57;0.55;;;31.00;55.20;;;35.19;40.76;101903.72;4988527;28;97363;-71
2021/06/01 09:43:54;;;;;;;1.83;0.67;;;31.00;55.40;;;35.29;40.81;101892.25;4984719;28;97089;-72
2021/06/01 09:46:25;;;;;;;0.15;0.15;;;31.10;54.80;;;35.26;40.28;101887.56;4985558;28;96932;-71
2021/06/01 09:48:56;;;;;;;0.68;0.35;;;31.20;54.90;;;35.16;40.59;101888.66;4985398;28;96737;-71
2021/06/01 09:51:32;;;;;;;5.47;1.17;;;31.20;54.70;;;35.09;40.90;101883.25;4980070;28;97908;-71
2021/06/01 09:54:30;;;;;;;4.47;1.30;;;31.20;54.60;;;35.11;40.41;101886.38;5018263;28;97005;-71
2021/06/01 09:57:00;;;;;;;0.22;0.22;;;31.20;54.00;;;35.19;40.09;101882.22;4983567;28;96792;-72
2021/06/01 09:59:32;;;;;;;4.05;2.13;;;31.20;54.30;;;35.27;40.13;101871.59;4986239;28;97101;-72
2021/06/01 10:02:04;;;;;;;3.30;0.93;;;31.20;54.20;;;35.22;39.55;101875.75;4987983;28;96894;-72
2021/06/01 10:04:32;;;;;;;1.23;0.63;;;31.30;54.10;;;35.07;39.86;101868.97;4985131;28;97725;-72
2021/06/01 10:07:03;;;;;;;0.80;0.40;;;31.20;54.00;;;35.05;39.83;101871.41;4989973;28;97006;-72
2021/06/01 10:09:45;;;;;;;0.55;0.32;;;31.20;53.90;;;35.01;39.76;101867.97;4988843;28;97304;-72
2021/06/01 10:12:13;;;;;;;3.20;0.95;;;31.10;53.40;;;34.93;39.48;101855.47;5017008;28;97342;-72
2021/06/01 10:14:43;;;;;;;0.52;0.52;;;31.00;53.70;;;34.82;39.66;101852.16;5016714;28;97465;-72
2021/06/01 10:17:21;;;;;;;0.20;0.20;;;31.00;53.60;;;34.81;39.23;101861.75;4985889;28;97257;-71
2021/06/01 10:19:51;;;;;;;0.30;0.30;;;31.00;53.60;;;34.68;39.76;101858.13;4987066;28;96772;-71
2021/06/01 10:22:19;;;;;;;0.45;0.45;;;30.90;53.40;;;34.71;39.78;101848.13;4984730;28;96889;-71
2021/06/01 10:24:48;;;;;;;0.40;0.40;;;30.80;53.40;;;34.66;39.17;101849.44;4983588;28;96838;-72
2021/06/01 10:27:16;;;;;;;0.05;0.05;;;30.70;53.50;;;34.66;39.57;101855.00;4987830;28;96717;-72
2021/06/01 10:29:46;;;;;;;0.43;0.30;;;30.70;53.10;;;34.51;39.10;101847.44;5004709;28;97315;-71
2021/06/01 10:32:15;;;;;;;0.50;0.50;;;30.70;53.10;;;34.23;39.84;101842.63;4978980;28;98364;-72
2021/06/01 10:34:45;;;;;;;0.63;0.55;;;30.60;53.00;;;33.93;40.19;101847.72;4987177;28;97659;-72
2021/06/01 10:44:05;;;;;;;1.02;0.80;;;30.30;52.70;;;34.13;39.26;101841.63;4986798;28;98158;-72
2021/06/01 10:52:12;;;;;;;0.55;0.40;;;30.40;52.50;;;34.19;38.71;101828.78;4985578;28;97054;-73